createdAt,value
2023-08-20T00:00:17.822Z,101195.44
2023-08-20T00:02:25.321Z,101195.53
2023-08-20T00:04:29.119Z,101194.72
2023-08-20T00:06:33.267Z,101204.41
2023-08-20T00:08:37.098Z,101203.63
2023-08-20T00:10:40.625Z,101201.94
2023-08-20T00:12:44.134Z,101210.81
2023-08-20T00:14:55.226Z,101204.50
2023-08-20T00:17:01.074Z,101210.94
2023-08-20T00:19:05.297Z,101206.75
2023-08-20T00:21:09.448Z,101202.41
2023-08-20T00:23:13.509Z,101178.72
2023-08-20T00:25:18.415Z,101213.78
2023-08-20T00:27:21.855Z,101216.34
2023-08-20T00:29:25.280Z,101211.03
2023-08-20T00:31:28.679Z,101222.38
2023-08-20T00:33:34.372Z,101223.28
2023-08-20T00:35:37.992Z,101225.97
2023-08-20T00:37:41.860Z,101221.59
2023-08-20T00:39:47.436Z,101217.28
2023-08-20T00:41:51.345Z,101217.97
2023-08-20T00:43:54.753Z,101220.56
2023-08-20T00:46:00.935Z,101226.75
2023-08-20T00:48:06.306Z,101224.22
2023-08-20T00:50:12.179Z,101209.38
2023-08-20T00:52:18.036Z,101186.56
2023-08-20T00:54:22.433Z,101207.75
2023-08-20T00:56:25.898Z,101209.41
2023-08-20T00:58:29.289Z,101203.09
2023-08-20T01:00:34.723Z,101204.97
2023-08-20T01:02:38.944Z,101203.25
2023-08-20T01:04:43.219Z,101209.41
2023-08-20T01:06:57.074Z,101203.22
2023-08-20T01:09:07.803Z,101200.44
2023-08-20T01:11:18.385Z,101194.31
2023-08-20T01:13:21.892Z,101185.41
2023-08-20T01:15:26.141Z,101178.50
2023-08-20T01:17:30.411Z,101168.91
2023-08-20T01:19:36.085Z,101174.38
2023-08-20T01:21:41.304Z,101165.50
2023-08-20T01:24:07.573Z,101175.25
2023-08-20T01:26:25.712Z,101185.03
2023-08-20T01:28:32.044Z,101178.88
2023-08-20T01:30:37.138Z,101172.72
2023-08-20T01:32:42.962Z,101174.50
2023-08-20T01:34:49.520Z,101181.53
2023-08-20T01:36:53.319Z,101182.25
2023-08-20T01:38:56.851Z,101179.53
2023-08-20T01:41:00.972Z,101182.19
2023-08-20T01:43:04.625Z,101191.88
2023-08-20T01:45:10.474Z,101188.34
2023-08-20T01:47:14.664Z,101191.03
2023-08-20T01:49:18.041Z,101203.41
2023-08-20T01:51:22.011Z,101199.00
2023-08-20T01:53:25.430Z,101199.75
2023-08-20T01:55:31.152Z,101205.03
2023-08-20T01:57:36.912Z,101210.38
2023-08-20T01:59:40.521Z,101210.38
2023-08-20T02:01:44.333Z,101203.28
2023-08-20T02:03:48.039Z,101176.94
2023-08-20T02:05:51.534Z,101209.50
2023-08-20T02:07:54.915Z,101205.09
2023-08-20T02:09:58.570Z,101201.69
2023-08-20T02:12:01.952Z,101210.44
2023-08-20T02:14:05.959Z,101207.78
2023-08-20T02:16:09.744Z,101213.19
2023-08-20T02:18:14.519Z,101223.75
2023-08-20T02:20:18.620Z,101222.91
2023-08-20T02:22:22.176Z,101207.81
2023-08-20T02:24:24.617Z,101221.94
2023-08-20T02:26:28.071Z,101208.66
2023-08-20T02:28:30.612Z,101216.56
2023-08-20T02:30:34.000Z,101214.84
2023-08-20T02:32:37.420Z,101221.09
2023-08-20T02:34:42.128Z,101224.59
2023-08-20T02:36:45.526Z,101226.41
2023-08-20T02:38:48.996Z,101240.59
2023-08-20T02:40:52.389Z,101228.25
2023-08-20T02:42:56.288Z,101239.69
2023-08-20T02:45:00.851Z,101231.84
2023-08-20T02:47:04.277Z,101248.69
2023-08-20T02:49:08.368Z,101253.97
2023-08-20T02:51:13.181Z,101244.25
2023-08-20T02:53:16.661Z,101257.47
2023-08-20T02:55:19.997Z,101252.09
2023-08-20T02:57:23.547Z,101258.22
2023-08-20T02:59:26.944Z,101244.09
2023-08-20T03:01:30.649Z,101242.31
2023-08-20T03:03:34.306Z,101241.38
2023-08-20T03:05:37.916Z,101248.47
2023-08-20T03:07:42.719Z,101230.03
2023-08-20T03:09:46.044Z,101244.06
2023-08-20T03:11:49.560Z,101235.34
2023-08-20T03:13:52.938Z,101245.94
2023-08-20T03:15:56.312Z,101239.78
2023-08-20T03:17:59.821Z,101246.00
2023-08-20T03:20:06.993Z,101256.63
2023-08-20T03:22:10.349Z,101252.19
2023-08-20T03:24:15.012Z,101251.28
2023-08-20T03:26:18.360Z,101251.19
2023-08-20T03:28:23.454Z,101254.81
2023-08-20T03:30:27.428Z,101238.09
2023-08-20T03:32:30.968Z,101247.75
2023-08-20T03:34:34.578Z,101245.97
2023-08-20T03:36:37.987Z,101253.97
2023-08-20T03:38:41.433Z,101250.44
2023-08-20T03:40:47.326Z,101261.88
2023-08-20T03:42:49.711Z,101258.41
2023-08-20T03:44:54.438Z,101262.78
2023-08-20T03:46:58.815Z,101261.03
2023-08-20T03:49:03.984Z,101268.06
2023-08-20T03:51:07.527Z,101268.03
2023-08-20T03:53:10.909Z,101271.56
2023-08-20T03:55:14.302Z,101268.00
2023-08-20T03:57:19.061Z,101267.06
2023-08-20T03:59:23.316Z,101268.88
2023-08-20T04:01:26.898Z,101268.88
2023-08-20T04:03:30.314Z,101272.44
2023-08-20T04:05:38.142Z,101270.69
2023-08-20T04:07:43.874Z,101269.75
2023-08-20T04:09:47.267Z,101278.59
2023-08-20T04:11:51.254Z,101282.97
2023-08-20T04:13:56.294Z,101275.94
2023-08-20T04:16:01.156Z,101282.91
2023-08-20T04:18:07.934Z,101284.75
2023-08-20T04:20:14.658Z,101296.25
2023-08-20T04:22:18.818Z,101297.16
2023-08-20T04:24:22.444Z,101297.13
2023-08-20T04:26:26.261Z,101293.56
2023-08-20T04:28:29.719Z,101284.81
2023-08-20T04:30:34.504Z,101283.88
2023-08-20T04:32:37.986Z,101289.13
2023-08-20T04:34:41.403Z,101294.38
2023-08-20T04:36:44.824Z,101283.78
2023-08-20T04:38:48.211Z,101285.47
2023-08-20T04:40:51.760Z,101288.19
2023-08-20T04:42:55.251Z,101299.75
2023-08-20T04:44:58.703Z,101282.19
2023-08-20T04:47:04.944Z,101300.59
2023-08-20T04:49:10.683Z,101310.28
2023-08-20T04:51:15.406Z,101307.69
2023-08-20T04:53:19.335Z,101305.94
2023-08-20T04:55:24.299Z,101296.13
2023-08-20T04:57:27.814Z,101298.81
2023-08-20T04:59:32.977Z,101306.75
2023-08-20T05:01:36.293Z,101305.03
2023-08-20T05:03:41.244Z,101310.34
2023-08-20T05:05:44.723Z,101306.91
2023-08-20T05:07:48.179Z,101306.06
2023-08-20T05:09:52.163Z,101274.28
2023-08-20T05:11:56.284Z,101311.38
2023-08-20T05:13:59.673Z,101306.91
2023-08-20T05:16:03.169Z,101313.03
2023-08-20T05:18:07.125Z,101305.03
2023-08-20T05:20:13.153Z,101304.97
2023-08-20T05:22:16.635Z,101315.69
2023-08-20T05:24:20.101Z,101311.34
2023-08-20T05:26:24.381Z,101316.63
2023-08-20T05:28:27.850Z,101317.53
2023-08-20T05:30:32.894Z,101310.47
2023-08-20T05:32:36.641Z,101310.47
2023-08-20T05:34:40.645Z,101320.19
2023-08-20T05:36:45.533Z,101323.72
2023-08-20T05:38:48.968Z,101316.66
2023-08-20T05:40:52.716Z,101309.59
2023-08-20T05:42:56.264Z,101320.19
2023-08-20T05:45:00.231Z,101321.97
2023-08-20T05:47:06.511Z,101322.81
2023-08-20T05:49:10.685Z,101323.72
2023-08-20T05:51:14.971Z,101331.69
2023-08-20T05:53:20.029Z,101321.94
2023-08-20T05:55:24.284Z,101322.81
2023-08-20T05:57:27.828Z,101322.81
2023-08-20T05:59:31.354Z,101324.59
2023-08-20T06:01:34.887Z,101326.38
2023-08-20T06:03:38.376Z,101328.13
2023-08-20T06:05:41.731Z,101329.00
2023-08-20T06:07:45.266Z,101325.50
2023-08-20T06:09:51.146Z,101323.69
2023-08-20T06:11:54.542Z,101310.47
2023-08-20T06:16:15.499Z,101326.31
2023-08-20T06:18:18.980Z,101334.19
2023-08-20T06:20:22.418Z,101341.22
2023-08-20T06:22:25.804Z,101345.66
2023-08-20T06:24:29.185Z,101338.50
2023-08-20T06:26:33.928Z,101344.66
2023-08-20T06:28:37.354Z,101339.34
2023-08-20T06:30:40.727Z,101334.91
2023-08-20T06:32:45.128Z,101331.47
2023-08-20T06:34:48.645Z,101330.56
2023-08-20T06:36:52.034Z,101333.16
2023-08-20T06:38:54.545Z,101336.63
2023-08-20T06:40:58.648Z,101335.75
2023-08-20T06:43:03.367Z,101338.50
2023-08-20T06:45:09.069Z,101333.19
2023-08-20T06:47:12.956Z,101336.66
2023-08-20T06:49:16.466Z,101333.78
2023-08-20T06:51:23.128Z,101345.16
2023-08-20T06:53:26.584Z,101343.41
2023-08-20T06:55:30.046Z,101344.44
2023-08-20T06:57:33.736Z,101345.25
2023-08-20T06:59:38.619Z,101350.59
2023-08-20T07:01:42.013Z,101350.53
2023-08-20T07:03:46.292Z,101272.16
2023-08-20T07:05:49.709Z,101349.56
2023-08-20T07:07:53.059Z,101345.22
2023-08-20T07:09:56.480Z,101350.44
2023-08-20T07:11:59.905Z,101351.28
2023-08-20T07:14:03.807Z,101356.53
2023-08-20T07:16:08.608Z,101356.47
2023-08-20T07:18:14.327Z,101354.75
2023-08-20T07:20:18.028Z,101354.75
2023-08-20T07:22:21.405Z,101357.44
2023-08-20T07:24:26.749Z,101357.31
2023-08-20T07:26:30.236Z,101340.59
2023-08-20T07:28:47.567Z,101352.13
2023-08-20T07:30:50.958Z,101361.84
2023-08-20T07:32:55.702Z,101358.34
2023-08-20T07:34:59.049Z,101353.88
2023-08-20T07:37:03.820Z,101358.25
2023-08-20T07:39:07.294Z,101358.28
2023-08-20T07:41:09.732Z,101358.22
2023-08-20T07:43:13.109Z,101354.69
2023-08-20T07:45:16.526Z,101358.28
2023-08-20T07:47:19.908Z,101359.06
2023-08-20T07:49:24.857Z,101359.06
2023-08-20T07:51:28.401Z,101357.31
2023-08-20T07:53:32.203Z,101360.72
2023-08-20T07:55:35.595Z,101362.47
2023-08-20T07:57:38.954Z,101361.53
2023-08-20T07:59:42.369Z,101365.91
2023-08-20T08:01:44.837Z,101361.44
2023-08-20T08:03:48.331Z,101359.75
2023-08-20T08:05:52.236Z,101367.69
2023-08-20T08:07:55.665Z,101373.69
2023-08-20T08:09:59.109Z,101375.66
2023-08-20T08:12:03.085Z,101376.50
2023-08-20T08:14:06.463Z,101377.31
2023-08-20T08:16:09.961Z,101386.16
2023-08-20T08:18:14.119Z,101381.81
2023-08-20T08:20:17.498Z,101385.28
2023-08-20T08:22:23.449Z,101387.00
2023-08-20T08:24:26.881Z,101377.13
2023-08-20T08:26:30.537Z,101378.06
2023-08-20T08:28:33.924Z,101384.31
2023-08-20T08:30:37.306Z,101301.28
2023-08-20T08:32:40.726Z,101386.78
2023-08-20T08:34:44.117Z,101386.78
2023-08-20T08:36:47.451Z,101382.97
2023-08-20T08:38:52.432Z,101388.19
2023-08-20T08:40:57.332Z,101376.28
2023-08-20T08:43:02.073Z,101382.91
2023-08-20T08:45:06.466Z,101380.16
2023-08-20T08:47:10.040Z,101386.41
2023-08-20T08:49:13.595Z,101381.88
2023-08-20T08:51:17.381Z,101375.56
2023-08-20T08:53:21.276Z,101379.00
2023-08-20T08:55:26.155Z,101361.41
2023-08-20T08:57:29.615Z,101378.91
2023-08-20T08:59:33.904Z,101372.69
2023-08-20T09:01:41.189Z,101372.75
2023-08-20T09:03:44.554Z,101371.63
2023-08-20T09:05:49.113Z,101376.75
2023-08-20T09:07:57.522Z,101374.06
2023-08-20T09:10:01.664Z,101373.91
2023-08-20T09:12:14.849Z,101379.75
2023-08-20T09:14:25.423Z,101374.47
2023-08-20T09:16:31.884Z,101352.09
2023-08-20T09:18:39.770Z,101378.69
2023-08-20T09:20:43.157Z,101384.53
2023-08-20T09:22:51.150Z,101387.94
2023-08-20T09:24:56.077Z,101389.97
2023-08-20T09:27:00.313Z,101391.97
2023-08-20T09:29:05.668Z,101388.19
2023-08-20T09:31:11.227Z,101397.72
2023-08-20T09:33:15.606Z,101393.28
2023-08-20T09:35:20.894Z,101388.59
2023-08-20T09:37:25.133Z,101384.72
2023-08-20T09:39:28.565Z,101392.72
2023-08-20T09:41:32.751Z,101397.75
2023-08-20T09:43:39.861Z,101406.16
2023-08-20T09:45:47.258Z,101405.63
2023-08-20T09:47:51.503Z,101399.94
2023-08-20T09:49:56.673Z,101390.28
2023-08-20T09:52:01.060Z,101405.28
2023-08-20T09:54:13.885Z,101404.34
2023-08-20T09:56:23.740Z,101408.19
2023-08-20T09:58:28.308Z,101403.06
2023-08-20T10:00:32.827Z,101409.16
2023-08-20T10:02:38.258Z,101412.88
2023-08-20T10:04:42.055Z,101406.38
2023-08-20T10:06:45.685Z,101419.72
2023-08-20T10:08:50.546Z,101417.78
2023-08-20T10:10:54.162Z,101419.03
2023-08-20T10:12:58.513Z,101421.66
2023-08-20T10:15:03.041Z,101412.94
2023-08-20T10:17:09.693Z,101416.81
2023-08-20T10:19:16.697Z,101415.09
2023-08-20T10:21:20.847Z,101418.72
2023-08-20T10:23:25.092Z,101426.69
2023-08-20T10:25:28.733Z,101432.00
2023-08-20T10:27:34.471Z,101424.28
2023-08-20T10:29:39.993Z,101419.97
2023-08-20T10:31:48.494Z,101415.78
2023-08-20T10:33:52.893Z,101417.28
2023-08-20T10:35:57.603Z,101420.97
2023-08-20T10:38:08.336Z,101418.31
2023-08-20T10:40:12.754Z,101422.38
2023-08-20T10:42:27.586Z,101418.19
2023-08-20T10:45:00.756Z,101416.63
2023-08-20T10:47:09.001Z,101421.53
2023-08-20T10:49:19.253Z,101421.59
2023-08-20T10:51:29.636Z,101422.97
2023-08-20T10:53:32.974Z,101418.13
2023-08-20T10:55:36.378Z,101424.69
2023-08-20T10:57:39.978Z,101423.56
2023-08-20T10:59:43.867Z,101424.13
2023-08-20T11:01:48.411Z,101414.16
2023-08-20T11:03:52.807Z,101428.25
2023-08-20T11:05:56.424Z,101419.03
2023-08-20T11:08:01.829Z,101414.22
2023-08-20T11:10:09.635Z,101417.09
2023-08-20T11:12:12.952Z,101411.00
2023-08-20T11:14:17.438Z,101411.38
2023-08-20T11:16:20.760Z,101409.91
2023-08-20T11:18:24.158Z,101419.41
2023-08-20T11:20:27.666Z,101413.22
2023-08-20T11:22:31.154Z,101402.53
2023-08-20T11:24:35.001Z,101414.47
2023-08-20T11:26:41.482Z,101410.69
2023-08-20T11:28:47.940Z,101418.69
2023-08-20T11:30:50.663Z,101388.63
2023-08-20T11:32:54.767Z,101407.31
2023-08-20T11:34:58.510Z,101413.75
2023-08-20T11:37:01.989Z,101403.53
2023-08-20T11:39:05.689Z,101418.81
2023-08-20T11:41:10.404Z,101409.16
2023-08-20T11:43:14.037Z,101419.00
2023-08-20T11:45:17.539Z,101404.75
2023-08-20T11:47:21.337Z,101391.72
2023-08-20T11:49:31.208Z,101410.94
2023-08-20T11:51:38.462Z,101410.41
2023-08-20T11:53:42.431Z,101406.22
2023-08-20T11:55:45.796Z,101412.25
2023-08-20T11:57:52.259Z,101409.28
2023-08-20T11:59:55.695Z,101410.47
2023-08-20T12:02:01.209Z,101395.84
2023-08-20T12:04:05.766Z,101393.38
2023-08-20T12:06:20.402Z,101393.22
2023-08-20T12:08:23.864Z,101399.50
2023-08-20T12:10:27.446Z,101391.84
2023-08-20T12:12:30.888Z,101387.34
2023-08-20T12:14:36.087Z,101398.56
2023-08-20T12:16:39.795Z,101400.88
2023-08-20T12:18:43.411Z,101400.19
2023-08-20T12:20:46.818Z,101405.78
2023-08-20T12:22:49.380Z,101398.00
2023-08-20T12:24:54.406Z,101401.34
2023-08-20T12:26:57.884Z,101392.47
2023-08-20T12:29:01.594Z,101393.31
2023-08-20T12:31:06.346Z,101398.41
2023-08-20T12:33:09.820Z,101389.41
2023-08-20T12:35:14.151Z,101396.34
2023-08-20T12:37:17.571Z,101386.97
2023-08-20T12:39:21.201Z,101385.47
2023-08-20T12:41:25.285Z,101387.88
2023-08-20T12:43:28.743Z,101387.34
2023-08-20T12:45:32.252Z,101376.78
2023-08-20T12:47:36.426Z,101374.88
2023-08-20T12:49:40.217Z,101375.38
2023-08-20T12:51:43.593Z,101375.22
2023-08-20T12:53:47.092Z,101379.03
2023-08-20T12:55:50.484Z,101378.31
2023-08-20T12:57:56.114Z,101380.56
2023-08-20T13:00:00.039Z,101374.56
2023-08-20T13:02:03.971Z,101367.66
2023-08-20T13:04:10.281Z,101367.19
2023-08-20T13:06:14.540Z,101373.94
2023-08-20T13:08:18.549Z,101370.84
2023-08-20T13:10:23.238Z,101382.34
2023-08-20T13:12:29.328Z,101382.16
2023-08-20T13:14:33.248Z,101381.75
2023-08-20T13:16:37.834Z,101366.81
2023-08-20T13:18:41.678Z,101376.34
2023-08-20T13:20:46.617Z,101376.22
2023-08-20T13:22:50.174Z,101378.78
2023-08-20T13:24:53.541Z,101379.72
2023-08-20T13:26:57.063Z,101377.53
2023-08-20T13:29:00.524Z,101383.78
2023-08-20T13:31:04.055Z,101378.25
2023-08-20T13:33:08.257Z,101378.44
2023-08-20T13:35:11.839Z,101381.31
2023-08-20T13:37:16.569Z,101378.00
2023-08-20T13:39:20.240Z,101370.66
2023-08-20T13:41:23.658Z,101375.38
2023-08-20T13:43:27.037Z,101384.91
2023-08-20T13:45:30.447Z,101388.09
2023-08-20T13:47:33.953Z,101384.72
2023-08-20T13:49:37.405Z,101383.75
2023-08-20T13:51:39.944Z,101380.22
2023-08-20T13:53:44.673Z,101385.53
2023-08-20T13:55:48.029Z,101383.16
2023-08-20T13:57:51.434Z,101380.75
2023-08-20T13:59:54.753Z,101371.84
2023-08-20T14:01:58.153Z,101365.59
2023-08-20T14:04:01.566Z,101368.38
2023-08-20T14:06:05.034Z,101371.41
2023-08-20T14:08:08.547Z,101375.63
2023-08-20T14:10:13.770Z,101370.78
2023-08-20T14:12:17.194Z,101377.41
2023-08-20T14:14:20.622Z,101376.50
2023-08-20T14:16:24.003Z,101373.56
2023-08-20T14:18:27.521Z,101381.28
2023-08-20T14:20:31.048Z,101379.00
2023-08-20T14:22:34.744Z,101372.50
2023-08-20T14:24:38.431Z,101371.88
2023-08-20T14:26:43.105Z,101308.19
2023-08-20T14:28:46.720Z,101371.56
2023-08-20T14:30:51.121Z,101364.31
2023-08-20T14:32:55.439Z,101367.19
2023-08-20T14:34:58.823Z,101377.50
2023-08-20T14:37:02.206Z,101367.94
2023-08-20T14:39:07.897Z,101357.69
2023-08-20T14:41:11.375Z,101361.31
2023-08-20T14:43:16.108Z,101356.66
2023-08-20T14:45:18.445Z,101363.94
2023-08-20T14:47:21.907Z,101351.41
2023-08-20T14:49:25.377Z,101352.94
2023-08-20T14:51:29.454Z,101352.34
2023-08-20T14:53:33.128Z,101347.06
2023-08-20T14:55:36.480Z,101352.31
2023-08-20T14:57:50.828Z,101349.81
2023-08-20T14:59:56.742Z,101346.53
2023-08-20T15:02:00.302Z,101350.19
2023-08-20T15:04:03.753Z,101346.53
2023-08-20T15:06:07.144Z,101337.63
2023-08-20T15:08:09.709Z,101331.38
2023-08-20T15:10:13.084Z,101350.56
2023-08-20T15:12:16.512Z,101343.78
2023-08-20T15:14:20.025Z,101342.59
2023-08-20T15:16:24.839Z,101338.63
2023-08-20T15:18:28.273Z,101336.63
2023-08-20T15:20:31.802Z,101332.50
2023-08-20T15:22:34.201Z,101334.00
2023-08-20T15:24:37.756Z,101333.84
2023-08-20T15:26:41.136Z,101341.88
2023-08-20T15:28:44.478Z,101331.97
2023-08-20T15:30:48.038Z,101343.91
2023-08-20T15:32:52.905Z,101339.13
2023-08-20T15:34:56.814Z,101340.72
2023-08-20T15:37:00.173Z,101339.13
2023-08-20T15:39:04.294Z,101312.44
2023-08-20T15:41:07.781Z,101341.53
2023-08-20T15:43:11.121Z,101345.03
2023-08-20T15:45:14.565Z,101350.59
2023-08-20T15:47:17.980Z,101348.06
2023-08-20T15:49:22.885Z,101345.03
2023-08-20T15:51:26.322Z,101340.66
2023-08-20T15:53:29.669Z,101328.34
2023-08-20T15:55:33.030Z,101335.38
2023-08-20T15:57:36.601Z,101334.56
2023-08-20T15:59:40.314Z,101329.19
2023-08-20T16:01:44.084Z,101332.50
2023-08-20T16:03:47.614Z,101323.75
2023-08-20T16:05:52.447Z,101334.91
2023-08-20T16:07:55.786Z,101333.69
2023-08-20T16:09:59.124Z,101329.94
2023-08-20T16:12:02.453Z,101325.25
2023-08-20T16:14:05.900Z,101330.19
2023-08-20T16:16:09.354Z,101324.31
2023-08-20T16:18:12.816Z,101330.03
2023-08-20T16:20:16.232Z,101328.53
2023-08-20T16:22:21.036Z,101331.75
2023-08-20T16:24:24.419Z,101327.75
2023-08-20T16:26:27.746Z,101320.97
2023-08-20T16:28:31.316Z,101323.72
2023-08-20T16:30:34.840Z,101319.31
2023-08-20T16:32:38.357Z,101315.88
2023-08-20T16:34:42.862Z,101326.97
2023-08-20T16:36:46.300Z,101319.03
2023-08-20T16:38:50.971Z,101321.78
2023-08-20T16:40:55.565Z,101320.59
2023-08-20T16:43:00.684Z,101322.81
2023-08-20T16:45:07.337Z,101329.69
2023-08-20T16:47:10.882Z,101332.97
2023-08-20T16:49:14.476Z,101321.94
2023-08-20T16:51:17.804Z,101300.34
2023-08-20T16:53:21.778Z,101329.56
2023-08-20T16:55:26.974Z,101317.91
2023-08-20T16:57:30.644Z,101316.03
2023-08-20T16:59:34.010Z,101322.19
2023-08-20T17:01:37.506Z,101326.88
2023-08-20T17:03:41.196Z,101330.47
2023-08-20T17:05:44.663Z,101324.47
2023-08-20T17:07:48.023Z,101306.84
2023-08-20T17:09:51.758Z,101325.72
2023-08-20T17:11:57.236Z,101320.25
2023-08-20T17:14:01.144Z,101324.44
2023-08-20T17:16:05.178Z,101324.22
2023-08-20T17:18:09.037Z,101319.19
2023-08-20T17:20:13.591Z,101319.69
2023-08-20T17:22:17.037Z,101313.75
2023-08-20T17:24:20.612Z,101313.97
2023-08-20T17:26:24.026Z,101313.38
2023-08-20T17:28:28.763Z,101312.53
2023-08-20T17:30:31.430Z,101282.66
2023-08-20T17:32:35.103Z,101312.31
2023-08-20T17:34:38.790Z,101319.66
2023-08-20T17:36:42.153Z,101311.88
2023-08-20T17:38:45.708Z,101312.31
2023-08-20T17:40:49.081Z,101315.75
2023-08-20T17:42:52.454Z,101311.50
2023-08-20T17:44:57.261Z,101326.50
2023-08-20T17:47:00.716Z,101320.50
2023-08-20T17:49:04.303Z,101322.75
2023-08-20T17:51:07.672Z,101223.75
2023-08-20T17:53:11.052Z,101311.16
2023-08-20T17:55:14.553Z,101313.94
2023-08-20T17:57:17.945Z,101300.66
2023-08-20T17:59:21.450Z,101309.22
2023-08-20T18:01:26.249Z,101310.59
2023-08-20T18:03:29.762Z,101300.72
2023-08-20T18:05:33.633Z,101310.19
2023-08-20T18:07:37.049Z,101306.09
2023-08-20T18:09:40.426Z,101309.44
2023-08-20T18:11:43.830Z,101302.88
2023-08-20T18:13:47.218Z,101304.28
2023-08-20T18:15:50.710Z,101309.53
2023-08-20T18:17:55.474Z,101307.56
2023-08-20T18:19:58.058Z,101314.50
2023-08-20T18:22:01.480Z,101318.47
2023-08-20T18:24:05.347Z,101313.22
2023-08-20T18:26:09.154Z,101316.41
2023-08-20T18:28:12.656Z,101321.66
2023-08-20T18:30:16.078Z,101317.06
2023-08-20T18:32:19.511Z,101311.19
2023-08-20T18:34:24.233Z,101324.22
2023-08-20T18:36:27.817Z,101312.81
2023-08-20T18:38:42.129Z,101311.56
2023-08-20T18:40:45.536Z,101306.38
2023-08-20T18:42:49.284Z,101309.41
2023-08-20T18:44:52.604Z,101310.41
2023-08-20T18:46:56.114Z,101322.41
2023-08-20T18:48:59.553Z,101316.53
2023-08-20T18:51:07.186Z,101320.31
2023-08-20T18:53:10.624Z,101305.50
2023-08-20T18:55:14.025Z,101331.75
2023-08-20T18:57:17.730Z,101331.91
2023-08-20T18:59:21.228Z,101336.91
2023-08-20T19:01:24.690Z,101341.41
2023-08-20T19:03:28.198Z,101320.81
2023-08-20T19:05:31.973Z,101335.81
2023-08-20T19:07:38.154Z,101336.94
2023-08-20T19:09:41.672Z,101337.59
2023-08-20T19:11:45.141Z,101343.13
2023-08-20T19:13:48.598Z,101342.75
2023-08-20T19:15:54.489Z,101330.56
2023-08-20T19:17:58.563Z,101328.25
2023-08-20T19:20:02.043Z,101341.28
2023-08-20T19:22:05.604Z,101341.59
2023-08-20T19:24:10.356Z,101345.78
2023-08-20T19:26:13.822Z,101351.34
2023-08-20T19:28:17.189Z,101351.34
2023-08-20T19:30:20.678Z,101348.53
2023-08-20T19:32:24.260Z,101352.22
2023-08-20T19:34:27.743Z,101356.91
2023-08-20T19:36:31.131Z,101357.75
2023-08-20T19:38:34.495Z,101356.59
2023-08-20T19:40:39.843Z,101354.19
2023-08-20T19:42:45.093Z,101336.91
2023-08-20T19:44:48.480Z,101351.34
2023-08-20T19:46:51.946Z,101288.41
2023-08-20T19:48:55.506Z,101365.91
2023-08-20T19:50:59.195Z,101359.03
2023-08-20T19:53:02.571Z,101357.50
2023-08-20T19:55:06.814Z,101360.28
2023-08-20T19:57:11.540Z,101357.78
2023-08-20T19:59:15.417Z,101362.44
2023-08-20T20:01:19.301Z,101355.41
2023-08-20T20:03:22.737Z,101355.88
2023-08-20T20:05:26.884Z,101355.50
2023-08-20T20:07:30.298Z,101333.63
2023-08-20T20:09:33.681Z,101361.94
2023-08-20T20:11:37.125Z,101361.63
2023-08-20T20:13:42.066Z,101362.44
2023-08-20T20:15:45.852Z,101365.06
2023-08-20T20:17:49.309Z,101368.94
2023-08-20T20:19:52.753Z,101371.50
2023-08-20T20:21:56.156Z,101362.13
2023-08-20T20:23:58.600Z,101367.81
2023-08-20T20:26:05.016Z,101373.97
2023-08-20T20:28:08.446Z,101378.41
2023-08-20T20:30:12.950Z,101374.03
2023-08-20T20:32:16.651Z,101373.47
2023-08-20T20:34:20.084Z,101363.78
2023-08-20T20:36:23.484Z,101383.31
2023-08-20T20:38:27.608Z,101373.53
2023-08-20T20:40:30.976Z,101381.47
2023-08-20T20:42:34.379Z,101380.78
2023-08-20T20:44:37.964Z,101378.63
2023-08-20T20:46:42.778Z,101391.25
2023-08-20T20:48:46.326Z,101388.19
2023-08-20T20:50:49.951Z,101397.13
2023-08-20T20:52:53.335Z,101395.34
2023-08-20T20:54:56.946Z,101390.19
2023-08-20T20:57:00.777Z,101376.47
2023-08-20T20:59:05.328Z,101392.97
2023-08-20T21:01:09.125Z,101398.84
2023-08-20T21:03:13.884Z,101397.00
2023-08-20T21:05:17.414Z,101387.47
2023-08-20T21:07:20.857Z,101390.84
2023-08-20T21:09:24.259Z,101395.06
2023-08-20T21:11:27.708Z,101397.69
2023-08-20T21:13:33.821Z,101399.50
2023-08-20T21:15:37.175Z,101401.84
2023-08-20T21:17:40.824Z,101393.28
2023-08-20T21:19:45.469Z,101396.41
2023-08-20T21:21:48.902Z,101396.25
2023-08-20T21:23:56.306Z,101397.34
2023-08-20T21:25:59.626Z,101386.91
2023-08-20T21:28:02.998Z,101389.50
2023-08-20T21:30:07.276Z,101394.03
2023-08-20T21:32:10.576Z,101385.03
2023-08-20T21:34:13.879Z,101392.94
2023-08-20T21:36:18.638Z,101392.22
2023-08-20T21:38:20.964Z,101388.47
2023-08-20T21:40:24.323Z,101385.03
2023-08-20T21:42:27.035Z,101388.63
2023-08-20T21:44:30.419Z,101386.56
2023-08-20T21:46:33.810Z,101385.78
2023-08-20T21:48:37.218Z,101384.84
2023-08-20T21:50:41.310Z,101374.00
2023-08-20T21:52:46.641Z,101376.84
2023-08-20T21:54:53.201Z,101383.66
2023-08-20T21:56:56.918Z,101382.72
2023-08-20T21:59:04.064Z,101378.38
2023-08-20T22:01:09.568Z,101382.00
2023-08-20T22:03:12.988Z,101389.00
2023-08-20T22:05:17.286Z,101379.25
2023-08-20T22:07:20.577Z,101384.47
2023-08-20T22:09:25.770Z,101383.03
2023-08-20T22:11:29.234Z,101386.72
2023-08-20T22:13:32.662Z,101353.31
2023-08-20T22:15:35.951Z,101390.81
2023-08-20T22:17:39.490Z,101384.84
2023-08-20T22:19:43.054Z,101386.66
2023-08-20T22:21:47.680Z,101396.25
2023-08-20T22:23:51.550Z,101384.00
2023-08-20T22:25:56.385Z,101392.56
2023-08-20T22:27:59.714Z,101398.13
2023-08-20T22:30:02.098Z,101387.00
2023-08-20T22:32:06.001Z,101388.69
2023-08-20T22:34:09.488Z,101386.16
2023-08-20T22:36:12.793Z,101385.13
2023-08-20T22:38:16.630Z,101384.19
2023-08-20T22:40:20.115Z,101393.47
2023-08-20T22:42:25.007Z,101383.53
2023-08-20T22:44:28.382Z,101389.22
2023-08-20T22:46:31.850Z,101373.66
2023-08-20T22:48:35.326Z,101387.56
2023-08-20T22:50:39.270Z,101379.84
2023-08-20T22:52:42.641Z,101383.28
2023-08-20T22:54:45.970Z,101380.66
2023-08-20T22:56:49.344Z,101373.59
2023-08-20T22:58:54.063Z,101371.03
2023-08-20T23:00:57.535Z,101379.03
2023-08-20T23:03:00.969Z,101380.06
2023-08-20T23:05:05.411Z,101380.09
2023-08-20T23:07:08.854Z,101382.53
2023-08-20T23:09:12.262Z,101382.72
2023-08-20T23:11:15.621Z,101381.75
2023-08-20T23:13:18.951Z,101379.13
2023-08-20T23:15:24.570Z,101381.88
2023-08-20T23:17:28.776Z,101374.06
2023-08-20T23:19:32.328Z,101362.56
2023-08-20T23:21:35.749Z,101377.59
2023-08-20T23:23:39.183Z,101389.69
2023-08-20T23:25:42.606Z,101370.47
2023-08-20T23:27:45.922Z,101384.59
2023-08-20T23:29:49.486Z,101378.41
2023-08-20T23:31:54.245Z,101382.84
2023-08-20T23:33:57.690Z,101378.28
2023-08-20T23:36:03.293Z,101373.97
2023-08-20T23:38:06.697Z,101380.38
2023-08-20T23:40:11.517Z,101377.59